KEDE/EDE METAR and TAF weather

Enter ICAO airport designator
Station Type Date Time Source
KEDE METAR 2020/09/23 00:15 UTC NOAA

KEDE 230015Z AUTO 00000KT 10SM CLR 16/12 A3008 RMK AO2 T01600115


Station Type Date Time Source
KEDE Decoded METAR 2020/09/23 00:15 UTC NOAA

Edenton, Northeastern Regional Airport, NC, United States (KEDE) 36-01-40N 076-34-02W
Sep 22, 2020 - 08:15 PM EDT / 2020.09.23 0015 UTC
Wind: Calm:0
Visibility: 10 mile(s):0
Sky conditions: clear
Temperature: 60.8 F (16.0 C)
Dew Point: 52.7 F (11.5 C)
Relative Humidity: 74%
Pressure (altimeter): 30.08 in. Hg (1018 hPa)
ob: KEDE 230015Z AUTO 00000KT 10SM CLR 16/12 A3008 RMK AO2 T01600115
cycle: 0

Station Type Date Time Source
KEDE TAF UTC NOAA

Error!

Example: see airport list